KQYC

2020-01-27 23:45:09Z

Plaintext report →

Temperature
High0.0 °C32.0 °F
Current0.0 °C32.0 °F
Low0.0 °C32.0 °F
Feels Like-2.5 °C27.6 °F
Dewpoint0.0 °C32.0 °F
Winds
Speed and Direction2.0 m/s4.5 mi/h 3 kn344 ° (NNW)
Gust0.0 m/s0.00 mi/h 0 kn
SquallUnavailable
Pressure and Humidity
Pressure At Field Level1005.5 mb29.7 in
Pressure At Sea Level0.0 mb0.0 in
Pressure Trend0.0 mb0.0 in
Pressure Tendency 0
HumidityUnavailable

Station Alarms & Warnings:

Ceilometer Alarms / Warnings:

Ceilometer Data Missing!
Historical Weather Phenomenon Graphs

Additional Information:

  METAR KQYC 272345Z AUTO 34003KT M1/4SM 00/00 A2969 RMK AO2 SLPNO 10000
  20000 50000 PWINO $=    
Cloud Cover
Layer 1 Undetected
Layer 2 Undetected
Layer 3 Undetected
Winds
2-minute Winds
Minimum0.8 m/s1.79 mi/h 1 kn325 ° (NW)
Average1.6 m/s3.58 mi/h 3 kn333 ° (NNW)
Maximum2.1 m/s4.70 mi/h 4 kn345 ° (NNW)
10-minute Winds
Minimum0.8 m/s1.79 mi/h 1 kn309 ° (NW)
Average2.0 m/s4.47 mi/h 3 kn329 ° (NNW)
Maximum3.0 m/s6.71 mi/h 5 kn351 ° (N)
Precipitation
IntensityUnavailable
Rainfall
1-hour Total0.00 mm0.00 in
3-hour TotalUnavailable
6-hour TotalUnavailable
24-hour TotalUnavailable
Precipitation
1-hour TotalUnavailable
3-hour TotalUnavailable
6-hour TotalUnavailable
24-hour TotalUnavailable
Snowfall
1-hour TotalUnavailable
3-hour TotalUnavailable
6-hour TotalUnavailable
24-hour TotalUnavailable